Time;durP1;ratioP1;P1;durP2;ratioP2;P2;SDS_P1;SDS_P2;PMS_P1;PMS_P2;Temp;Humidity;BMP_temperature;BMP_pressure;BME280_temperature;BME280_humidity;BME280_pressure;Samples;Min_cycle;Max_cycle;Signal;HPM_P1;HPM_P2
2022/05/30 00:01:43;;;;;;;14.65;8.00;;;;;;;16.25;96.64;99794.59;5017886;28;20768;-74
2022/05/30 00:04:11;;;;;;;16.60;9.43;;;;;;;16.31;96.60;99789.06;5041464;28;20045;-74
2022/05/30 00:06:36;;;;;;;11.20;8.02;;;;;;;16.17;96.96;99797.47;5027666;28;20060;-73
2022/05/30 00:09:04;;;;;;;11.07;7.70;;;;;;;16.27;96.70;99784.78;5064567;28;20059;-74
2022/05/30 00:11:29;;;;;;;15.10;8.35;;;;;;;16.13;96.83;99779.09;5058349;28;20067;-73
2022/05/30 00:13:55;;;;;;;10.43;7.90;;;;;;;16.22;96.97;99784.06;5059302;28;20169;-74
2022/05/30 00:16:23;;;;;;;20.42;7.95;;;;;;;16.34;96.24;99778.38;5059769;28;20052;-74
2022/05/30 00:18:49;;;;;;;10.77;9.32;;;;;;;16.20;96.45;99777.97;5046543;28;20059;-74
2022/05/30 00:21:22;;;;;;;12.73;8.23;;;;;;;16.23;96.58;99778.75;5056008;28;20052;-73
2022/05/30 00:23:49;;;;;;;12.20;8.35;;;;;;;16.17;96.42;99757.75;5058134;28;20032;-74
2022/05/30 00:26:16;;;;;;;12.48;8.65;;;;;;;16.27;96.68;99768.03;5059070;28;20028;-73
2022/05/30 00:28:48;;;;;;;11.23;8.73;;;;;;;16.34;95.92;99762.50;5055469;28;20044;-72
2022/05/30 00:31:16;;;;;;;13.73;9.00;;;;;;;16.24;96.23;99756.63;5055577;28;20044;-74
2022/05/30 00:33:42;;;;;;;14.07;9.27;;;;;;;16.09;97.29;99751.00;5057710;28;20094;-74
2022/05/30 00:36:08;;;;;;;18.50;9.43;;;;;;;16.19;97.06;99749.78;5057428;28;20052;-73
2022/05/30 00:38:35;;;;;;;11.35;8.93;;;;;;;16.23;96.71;99765.50;5058029;28;20040;-74
2022/05/30 00:41:03;;;;;;;15.45;9.70;;;;;;;16.15;97.18;99775.47;5056173;28;20112;-73
2022/05/30 00:43:30;;;;;;;14.00;10.00;;;;;;;16.15;97.39;99774.59;5004099;28;20512;-73
2022/05/30 00:45:58;;;;;;;11.48;9.40;;;;;;;16.28;97.23;99775.06;5037295;28;20712;-72
2022/05/30 00:48:30;;;;;;;13.95;10.18;;;;;;;16.23;96.97;99775.22;5038476;28;20063;-73
2022/05/30 00:51:00;;;;;;;14.05;10.80;;;;;;;16.18;97.03;99764.78;5034065;28;20040;-73
2022/05/30 00:53:27;;;;;;;17.35;10.55;;;;;;;16.20;97.54;99775.31;5058719;28;20112;-73
2022/05/30 00:55:53;;;;;;;15.93;11.98;;;;;;;16.10;97.86;99761.53;5050027;28;20101;-74
2022/05/30 00:58:21;;;;;;;13.95;10.68;;;;;;;15.41;97.83;99656.16;5028314;28;20056;-73
2022/05/30 01:00:47;;;;;;;16.00;12.55;;;;;;;16.10;98.15;99747.44;5037754;28;20744;-73
2022/05/30 01:08:41;;;;;;;15.25;11.05;;;;;;;15.71;97.85;99719.59;5035572;28;20102;-72
2022/05/30 01:11:07;;;;;;;14.10;10.23;;;;;;;16.15;97.82;99766.66;5038549;28;20439;-73
2022/05/30 01:13:32;;;;;;;15.32;10.70;;;;;;;16.28;97.19;99773.28;5024598;28;21525;-72
2022/05/30 01:15:58;;;;;;;14.13;10.85;;;;;;;16.25;96.44;99757.53;5025164;28;20059;-73
2022/05/30 01:18:31;;;;;;;14.55;9.90;;;;;;;16.24;96.78;99769.00;5023375;28;20058;-73
2022/05/30 01:21:21;;;;;;;16.27;10.13;;;;;;;16.20;97.22;99780.59;5012560;28;20033;-72
2022/05/30 01:24:03;;;;;;;15.50;9.82;;;;;;;15.70;96.86;99696.69;5020611;28;20111;-72
2022/05/30 01:26:48;;;;;;;14.45;10.10;;;;;;;15.57;97.76;99711.22;5020628;28;20610;-72
2022/05/30 01:29:20;;;;;;;14.45;9.90;;;;;;;15.48;97.65;99693.00;5037240;28;20511;-73
2022/05/30 01:31:45;;;;;;;13.95;9.38;;;;;;;16.14;97.60;99768.47;5039956;28;20091;-73
2022/05/30 01:34:11;;;;;;;11.77;9.77;;;;;;;16.09;97.96;99777.47;5038917;28;20104;-72
2022/05/30 01:36:39;;;;;;;17.65;10.20;;;;;;;16.10;97.87;99768.59;5036070;28;20052;-72
2022/05/30 01:39:05;;;;;;;10.85;9.05;;;;;;;15.98;96.61;99709.88;5021192;28;20066;-73
2022/05/30 01:41:31;;;;;;;18.27;8.93;;;;;;;16.01;97.34;99775.94;5020284;28;20091;-73
2022/05/30 01:43:58;;;;;;;17.63;10.48;;;;;;;16.10;97.78;99780.06;5019646;28;20045;-73
2022/05/30 01:46:26;;;;;;;12.55;8.70;;;;;;;16.09;97.38;99786.28;5018729;28;20168;-74
2022/05/30 01:48:52;;;;;;;14.98;10.05;;;;;;;15.93;97.53;99767.38;5014556;28;20045;-74
2022/05/30 01:51:19;;;;;;;12.85;10.88;;;;;;;16.00;97.37;99778.63;5005652;28;20049;-72
2022/05/30 01:53:46;;;;;;;9.98;8.95;;;;;;;16.01;97.33;99775.94;5037458;28;20029;-73
2022/05/30 01:56:13;;;;;;;13.23;8.75;;;;;;;16.28;96.42;99793.63;5038266;28;20041;-73
2022/05/30 01:58:38;;;;;;;14.85;10.65;;;;;;;15.95;97.40;99792.00;5016493;28;20400;-73
2022/05/30 02:01:06;;;;;;;12.20;9.30;;;;;;;16.03;97.31;99786.47;5013150;28;20072;-73
2022/05/30 02:03:33;;;;;;;12.05;9.82;;;;;;;15.96;97.19;99785.78;5021143;28;20512;-72
2022/05/30 02:05:59;;;;;;;13.20;8.07;;;;;;;16.11;97.64;99787.09;5019567;28;20057;-73
2022/05/30 02:08:25;;;;;;;16.17;10.55;;;;;;;16.03;97.13;99803.19;5020761;28;20053;-73
2022/05/30 02:10:50;;;;;;;12.80;9.50;;;;;;;15.99;97.65;99795.41;5012428;28;20042;-73
2022/05/30 02:13:16;;;;;;;12.18;8.73;;;;;;;15.90;97.30;99780.72;5011714;28;20048;-72
2022/05/30 02:18:26;;;;;;;11.25;8.70;;;;;;;16.03;97.54;99812.94;5031955;28;20060;-73
2022/05/30 02:20:51;;;;;;;8.85;7.65;;;;;;;16.08;97.34;99788.97;5022663;28;20041;-72
2022/05/30 02:23:17;;;;;;;12.98;8.70;;;;;;;16.10;96.78;99801.22;5026243;28;20040;-72
2022/05/30 02:25:44;;;;;;;14.32;9.50;;;;;;;16.11;97.01;99808.28;5039758;28;20128;-73
2022/05/30 02:28:10;;;;;;;10.40;8.27;;;;;;;16.00;97.47;99813.03;5040663;28;20064;-72
2022/05/30 02:30:36;;;;;;;10.55;8.07;;;;;;;15.58;97.33;99756.09;5041534;28;20088;-73
2022/05/30 02:38:34;;;;;;;16.73;10.15;;;;;;;15.92;98.26;99804.47;5003357;28;20506;-72
2022/05/30 02:41:00;;;;;;;12.18;8.27;;;;;;;15.56;97.31;99752.63;5041858;28;20076;-73
2022/05/30 02:43:26;;;;;;;12.07;9.82;;;;;;;15.96;97.77;99819.34;5030614;28;20495;-72
2022/05/30 02:45:52;;;;;;;17.05;10.68;;;;;;;15.70;97.22;99770.75;5023540;28;20053;-73
2022/05/30 02:48:17;;;;;;;12.27;9.23;;;;;;;15.90;97.78;99819.53;5040664;28;20507;-73
2022/05/30 02:50:45;;;;;;;12.07;8.43;;;;;;;16.03;97.26;99823.50;5015811;28;20506;-73
2022/05/30 02:53:12;;;;;;;15.70;10.07;;;;;;;15.53;96.95;99771.25;5043126;28;20071;-73
2022/05/30 02:55:39;;;;;;;10.65;8.40;;;;;;;15.92;97.40;99821.22;5039739;28;20056;-73
2022/05/30 02:58:05;;;;;;;29.67;10.55;;;;;;;15.87;97.88;99832.84;4991889;28;20053;-72
2022/05/30 03:00:31;;;;;;;13.50;10.10;;;;;;;15.92;97.81;99823.88;5018310;28;20099;-72
2022/05/30 03:02:56;;;;;;;15.07;9.25;;;;;;;16.01;97.76;99823.59;5042428;28;20805;-72
2022/05/30 03:05:22;;;;;;;13.48;10.23;;;;;;;15.83;98.01;99814.44;5041649;28;20037;-73
2022/05/30 03:07:48;;;;;;;12.48;9.35;;;;;;;15.93;98.03;99835.31;5036464;28;20052;-73
2022/05/30 03:10:13;;;;;;;13.57;9.75;;;;;;;15.89;97.96;99821.31;5022028;28;20491;-72
2022/05/30 03:12:39;;;;;;;13.70;10.15;;;;;;;15.68;97.49;99764.59;5041548;28;20354;-72
2022/05/30 03:15:08;;;;;;;17.67;10.25;;;;;;;15.71;96.74;99767.22;5042059;28;20044;-72
2022/05/30 03:17:35;;;;;;;14.88;9.70;;;;;;;16.27;95.99;99837.72;5040496;28;20183;-74
2022/05/30 03:20:01;;;;;;;11.50;9.93;;;;;;;15.80;96.31;99789.84;5040377;28;20083;-74
2022/05/30 03:22:26;;;;;;;12.88;9.82;;;;;;;16.24;96.84;99821.94;5041835;28;20062;-73
2022/05/30 03:24:53;;;;;;;12.05;9.23;;;;;;;15.93;95.95;99771.81;5018650;28;20053;-73
2022/05/30 03:27:18;;;;;;;12.95;9.65;;;;;;;16.20;96.09;99837.09;5023676;28;20045;-73
2022/05/30 03:29:44;;;;;;;17.85;9.25;;;;;;;16.11;96.32;99837.38;5044206;28;20044;-73
2022/05/30 03:32:10;;;;;;;10.95;9.60;;;;;;;16.12;96.62;99852.34;5047652;28;20037;-73
2022/05/30 03:34:42;;;;;;;10.93;9.75;;;;;;;16.14;96.54;99847.00;5042645;28;20087;-73
2022/05/30 03:37:07;;;;;;;11.57;9.30;;;;;;;16.42;95.35;99846.97;5045511;28;20092;-72
2022/05/30 03:39:33;;;;;;;14.95;9.93;;;;;;;16.55;94.09;99853.59;5043386;28;20138;-72
2022/05/30 03:41:58;;;;;;;13.30;10.27;;;;;;;16.65;94.47;99862.09;5046243;28;20053;-73
2022/05/30 03:44:25;;;;;;;12.88;10.57;;;;;;;16.56;94.70;99852.66;5044830;28;20694;-73
2022/05/30 03:46:52;;;;;;;13.57;9.82;;;;;;;16.40;94.65;99870.84;5044148;28;20060;-74
2022/05/30 03:49:18;;;;;;;14.18;11.25;;;;;;;16.56;94.04;99879.16;5043488;28;20049;-73
2022/05/30 03:51:43;;;;;;;10.57;8.52;;;;;;;16.15;94.48;99798.44;5039017;28;20055;-74
2022/05/30 03:54:09;;;;;;;15.48;10.00;;;;;;;16.45;94.52;99860.09;5041379;28;20056;-73
2022/05/30 03:56:34;;;;;;;10.65;8.95;;;;;;;16.44;94.95;99882.22;5043764;28;20048;-74
2022/05/30 03:59:00;;;;;;;13.57;10.32;;;;;;;16.19;93.93;99808.88;5040688;28;20048;-74
2022/05/30 04:01:25;;;;;;;15.02;10.25;;;;;;;16.58;94.47;99882.63;5023143;28;20041;-73
2022/05/30 04:03:52;;;;;;;13.85;10.27;;;;;;;16.40;93.43;99796.69;5042757;28;20491;-72
2022/05/30 04:06:18;;;;;;;14.10;9.00;;;;;;;16.94;92.92;99878.81;5044073;28;20122;-72
2022/05/30 04:08:50;;;;;;;14.63;10.45;;;;;;;16.86;92.85;99868.47;5060123;28;20049;-74
2022/05/30 04:11:17;;;;;;;19.75;10.98;;;;;;;16.47;93.98;99884.75;5062082;28;20036;-73
2022/05/30 04:13:43;;;;;;;14.40;11.63;;;;;;;16.60;93.76;99883.44;5059662;28;20127;-73
2022/05/30 04:16:13;;;;;;;13.77;9.05;;;;;;;16.41;93.89;99879.66;5043572;28;20060;-72
2022/05/30 04:18:38;;;;;;;13.55;10.40;;;;;;;16.27;94.38;99855.41;5064130;28;20133;-73
2022/05/30 04:21:06;;;;;;;13.82;10.82;;;;;;;16.08;93.27;99791.59;5061736;28;20112;-73
2022/05/30 04:23:32;;;;;;;13.77;10.00;;;;;;;16.55;92.99;99831.53;5043046;28;20082;-73
2022/05/30 04:25:58;;;;;;;14.45;9.88;;;;;;;16.70;92.70;99899.03;5043490;28;20036;-73
2022/05/30 04:28:23;;;;;;;11.85;9.18;;;;;;;16.43;93.25;99883.13;5060186;28;20120;-74
2022/05/30 04:30:49;;;;;;;12.05;9.85;;;;;;;16.59;93.65;99900.22;5063214;28;20112;-73
2022/05/30 04:33:15;;;;;;;14.40;11.05;;;;;;;16.20;93.08;99813.25;5059039;28;20037;-74
2022/05/30 04:35:43;;;;;;;11.82;9.32;;;;;;;16.65;92.94;99923.03;5061622;28;20040;-73
2022/05/30 04:38:09;;;;;;;12.63;8.93;;;;;;;16.20;92.77;99858.25;5060256;28;20514;-73
2022/05/30 04:40:35;;;;;;;16.58;9.50;;;;;;;16.79;92.61;99906.72;5061210;28;20483;-73
2022/05/30 04:43:00;;;;;;;14.88;8.70;;;;;;;16.90;92.13;99911.63;5062451;28;20071;-72
2022/05/30 04:45:26;;;;;;;12.65;9.07;;;;;;;16.85;91.94;99933.84;5045806;28;20104;-73
2022/05/30 04:47:52;;;;;;;15.38;9.50;;;;;;;16.43;91.93;99853.97;5043965;28;20032;-74
2022/05/30 04:50:18;;;;;;;14.00;10.20;;;;;;;16.52;91.81;99863.41;5064370;28;20090;-74
2022/05/30 04:52:45;;;;;;;17.10;11.77;;;;;;;16.45;91.76;99857.44;5060810;28;20041;-75
2022/05/30 04:55:12;;;;;;;20.90;13.88;;;;;;;16.90;92.14;99914.28;5059159;28;20126;-74
2022/05/30 04:57:49;;;;;;;34.85;22.65;;;;;;;17.05;91.50;99913.75;5059643;28;20048;-74
2022/05/30 05:00:18;;;;;;;14.80;11.48;;;;;;;17.22;90.93;99937.03;5055998;28;20049;-75
2022/05/30 05:02:46;;;;;;;19.67;11.38;;;;;;;17.33;90.78;99950.78;5061121;28;20044;-74
2022/05/30 05:05:12;;;;;;;17.17;10.52;;;;;;;16.78;92.05;99942.88;5059880;28;20032;-74
2022/05/30 05:08:27;;;;;;;12.75;9.75;;;;;;;16.86;92.33;99954.13;5057315;28;23759;-73
2022/05/30 05:11:19;;;;;;;11.85;9.35;;;;;;;16.87;90.90;99939.09;5017468;28;20053;-72
2022/05/30 05:13:45;;;;;;;11.82;9.00;;;;;;;16.68;90.06;99869.94;5063431;28;20411;-74
2022/05/30 05:16:11;;;;;;;16.08;8.75;;;;;;;16.88;90.12;99882.53;5059700;28;20048;-73
2022/05/30 05:18:38;;;;;;;10.95;8.63;;;;;;;17.44;91.09;99963.66;5043722;28;20040;-72
2022/05/30 05:21:03;;;;;;;17.02;11.73;;;;;;;16.86;90.72;99874.63;5059871;28;20051;-72
2022/05/30 05:23:30;;;;;;;15.40;10.23;;;;;;;17.04;90.58;99912.91;5065533;28;20044;-72
2022/05/30 05:25:56;;;;;;;20.98;10.75;;;;;;;17.47;89.47;99961.75;5062532;28;20048;-73
2022/05/30 05:28:21;;;;;;;17.33;10.95;;;;;;;17.56;88.95;99962.34;5061511;28;20119;-73
2022/05/30 05:30:47;;;;;;;15.55;10.45;;;;;;;17.76;88.16;99956.31;5060633;28;20036;-75
2022/05/30 05:33:12;;;;;;;14.07;9.98;;;;;;;17.09;88.65;99902.09;5056252;28;20426;-74
2022/05/30 05:35:46;;;;;;;18.25;10.07;;;;;;;17.72;88.16;99971.47;5064756;28;20037;-74
2022/05/30 05:38:13;;;;;;;12.57;9.35;;;;;;;17.72;88.24;99975.03;5057004;28;20132;-74
2022/05/30 05:40:43;;;;;;;12.05;9.65;;;;;;;17.79;88.11;99991.56;5061905;28;20048;-74
2022/05/30 05:43:09;;;;;;;16.65;11.00;;;;;;;17.14;88.06;99915.19;5064354;28;20166;-74
2022/05/30 05:45:41;;;;;;;12.30;9.75;;;;;;;17.45;89.10;99991.91;5060872;28;20076;-74
2022/05/30 05:48:09;;;;;;;14.73;10.87;;;;;;;17.82;87.59;99982.69;5062686;28;20094;-74
2022/05/30 05:50:38;;;;;;;18.73;10.50;;;;;;;17.58;87.15;99924.22;5062910;28;20431;-74
2022/05/30 05:53:05;;;;;;;17.63;9.57;;;;;;;17.93;87.68;99989.31;5059023;28;20071;-74
2022/05/30 05:55:30;;;;;;;12.02;9.27;;;;;;;17.64;86.80;99909.88;5061341;28;20129;-73
2022/05/30 05:57:56;;;;;;;14.90;11.85;;;;;;;17.78;86.23;99942.06;5060449;28;20064;-73
2022/05/30 06:00:21;;;;;;;18.52;9.55;;;;;;;17.84;85.66;99925.97;5062170;28;20114;-74
2022/05/30 06:02:47;;;;;;;13.32;9.73;;;;;;;17.70;86.20;99929.09;5060469;28;20036;-73
2022/05/30 06:05:13;;;;;;;12.38;9.27;;;;;;;18.23;86.06;99997.03;5063308;28;20575;-73
2022/05/30 06:07:41;;;;;;;20.02;10.75;;;;;;;18.28;86.16;99991.53;5059517;28;20072;-74
2022/05/30 06:10:09;;;;;;;16.55;11.05;;;;;;;18.11;86.41;99995.72;5061281;28;20512;-73
2022/05/30 06:12:37;;;;;;;16.58;9.45;;;;;;;17.97;87.15;99989.19;5059094;28;20543;-73
2022/05/30 06:15:06;;;;;;;13.70;11.13;;;;;;;17.86;87.97;100003.75;5058835;28;20576;-73
2022/05/30 06:17:32;;;;;;;19.08;11.23;;;;;;;17.48;87.12;99933.44;5060911;28;20029;-74
2022/05/30 06:19:59;;;;;;;11.57;10.38;;;;;;;17.87;86.96;99978.91;5057898;28;20052;-73
2022/05/30 06:22:24;;;;;;;16.30;10.90;;;;;;;17.88;85.37;99956.75;5061524;28;20061;-73
2022/05/30 06:24:52;;;;;;;21.38;11.05;;;;;;;17.85;85.06;99930.34;5063240;28;20052;-72
2022/05/30 06:27:20;;;;;;;17.85;11.82;;;;;;;17.97;85.45;99947.59;5060377;28;20140;-72
2022/05/30 06:29:47;;;;;;;17.95;9.80;;;;;;;17.49;86.00;99929.88;5032644;28;20037;-73
2022/05/30 06:32:13;;;;;;;19.60;11.57;;;;;;;17.73;87.16;100005.06;5045525;28;20401;-73
2022/05/30 06:34:39;;;;;;;14.23;10.70;;;;;;;18.02;86.58;100008.47;5040544;28;20078;-73
2022/05/30 06:37:10;;;;;;;12.88;10.30;;;;;;;17.68;86.79;99946.00;5054947;28;20068;-73
2022/05/30 06:39:39;;;;;;;17.10;11.43;;;;;;;17.83;86.89;100005.63;5059903;28;20044;-72
2022/05/30 06:42:11;;;;;;;14.25;11.20;;;;;;;18.32;85.08;100017.94;5036131;28;20075;-72
2022/05/30 06:44:38;;;;;;;24.35;11.52;;;;;;;18.28;85.06;100007.47;5061562;28;20579;-73
2022/05/30 06:47:05;;;;;;;14.10;10.52;;;;;;;18.44;84.86;100007.75;5059798;28;20282;-72
2022/05/30 06:49:31;;;;;;;13.93;11.65;;;;;;;18.38;84.43;99989.41;5058250;28;20068;-73
2022/05/30 06:51:57;;;;;;;14.80;11.15;;;;;;;18.54;84.23;99998.50;5059829;28;20060;-73
2022/05/30 06:54:23;;;;;;;18.33;9.57;;;;;;;18.47;84.85;99997.00;5060614;28;20049;-71
2022/05/30 06:59:33;;;;;;;26.60;12.65;;;;;;;18.20;83.41;99944.03;5061379;28;20131;-73
2022/05/30 07:02:00;;;;;;;15.88;11.05;;;;;;;18.35;83.44;100017.84;5061713;28;20754;-72
2022/05/30 07:04:29;;;;;;;29.75;11.02;;;;;;;18.34;82.26;100008.13;5059470;28;20044;-72
2022/05/30 07:06:54;;;;;;;19.77;9.35;;;;;;;18.64;82.11;100026.47;5057314;28;20055;-72
2022/05/30 07:09:21;;;;;;;18.85;9.23;;;;;;;18.20;83.02;99977.72;5057178;28;20045;-72
2022/05/30 07:11:49;;;;;;;12.70;9.35;;;;;;;18.30;82.95;100032.19;5059621;28;20035;-72
2022/05/30 07:14:16;;;;;;;12.98;9.85;;;;;;;18.55;83.22;100033.00;5044385;28;20032;-73
2022/05/30 07:16:42;;;;;;;11.50;9.15;;;;;;;18.62;81.76;100041.59;5060705;28;20101;-73
2022/05/30 07:19:09;;;;;;;12.60;9.52;;;;;;;18.29;82.29;99966.72;5059229;28;20044;-72
2022/05/30 07:21:35;;;;;;;15.30;9.60;;;;;;;18.71;81.30;100045.69;5054718;28;20056;-73
2022/05/30 07:24:00;;;;;;;13.75;9.55;;;;;;;18.75;82.41;100053.47;5059868;28;20055;-72
2022/05/30 07:26:26;;;;;;;12.10;9.20;;;;;;;18.97;80.92;100044.69;5059666;28;21949;-73
2022/05/30 07:28:51;;;;;;;19.08;10.43;;;;;;;19.04;80.28;100038.19;5061825;28;20075;-73
2022/05/30 07:31:19;;;;;;;14.40;9.65;;;;;;;19.28;79.74;100065.53;5063233;28;20095;-73
2022/05/30 07:33:48;;;;;;;15.48;9.07;;;;;;;19.01;79.68;100008.16;5037656;28;20063;-73
2022/05/30 07:36:21;;;;;;;9.93;8.18;;;;;;;19.51;79.28;100088.53;5061427;28;20045;-74
2022/05/30 07:38:47;;;;;;;10.77;7.75;;;;;;;19.02;78.24;100082.56;5058579;28;20096;-72
2022/05/30 07:41:14;;;;;;;21.70;8.45;;;;;;;19.03;78.41;100083.44;5063279;28;20051;-74
2022/05/30 07:43:40;;;;;;;11.20;8.07;;;;;;;19.25;79.16;100059.50;5063836;28;20040;-73
2022/05/30 07:46:11;;;;;;;13.88;9.13;;;;;;;19.15;80.33;100019.09;5060075;28;20055;-73
2022/05/30 07:48:37;;;;;;;13.40;9.32;;;;;;;18.81;79.37;100007.19;5060770;28;20037;-72
2022/05/30 07:51:04;;;;;;;16.73;9.57;;;;;;;19.59;80.30;100091.72;5063796;28;20041;-73
2022/05/30 07:53:30;;;;;;;17.80;9.68;;;;;;;19.31;77.58;100022.84;5058274;28;20036;-73
2022/05/30 07:55:57;;;;;;;10.60;7.95;;;;;;;19.11;76.99;100017.53;5041689;28;20056;-74
2022/05/30 07:58:22;;;;;;;15.80;7.47;;;;;;;19.60;77.18;100034.91;5059906;28;20120;-74
2022/05/30 08:00:49;;;;;;;8.82;7.93;;;;;;;19.97;76.35;100105.25;5041356;28;20198;-74
2022/05/30 08:03:16;;;;;;;12.02;9.18;;;;;;;19.65;75.31;100052.50;5040988;28;20415;-74
2022/05/30 08:05:47;;;;;;;13.35;8.25;;;;;;;20.09;74.02;100105.59;5063608;28;20032;-73
2022/05/30 08:08:22;;;;;;;14.20;8.00;;;;;;;20.50;76.48;100114.41;5036642;28;20085;-73
2022/05/30 08:10:48;;;;;;;14.38;8.93;;;;;;;20.58;75.56;100116.75;5041540;28;20802;-73
2022/05/30 08:13:14;;;;;;;10.15;8.30;;;;;;;20.56;75.05;100118.66;5039872;28;20041;-74
2022/05/30 08:15:40;;;;;;;15.18;9.30;;;;;;;19.88;75.76;100048.81;5043212;28;20056;-73
2022/05/30 08:18:06;;;;;;;16.05;8.30;;;;;;;20.18;75.66;100123.84;5045155;28;21042;-74
2022/05/30 08:20:32;;;;;;;12.48;8.75;;;;;;;20.14;74.50;100103.63;5040808;28;20652;-74
2022/05/30 08:22:59;;;;;;;12.85;7.97;;;;;;;19.96;74.13;100097.31;5040226;28;20171;-85
2022/05/30 08:25:24;;;;;;;10.65;8.27;;;;;;;20.02;72.51;100075.75;5037945;28;20045;-76
2022/05/30 08:27:50;;;;;;;11.07;7.70;;;;;;;20.92;72.67;100140.06;5053756;28;20053;-78
2022/05/30 08:30:23;;;;;;;12.85;7.55;;;;;;;20.18;74.53;100067.91;5060873;28;20816;-78
2022/05/30 08:32:53;;;;;;;15.77;6.97;;;;;;;20.76;74.11;100142.56;5061907;28;20185;-82
2022/05/30 08:35:19;;;;;;;7.85;6.47;;;;;;;21.06;73.83;100134.91;5065755;28;20032;-80
2022/05/30 08:37:46;;;;;;;13.88;8.82;;;;;;;20.79;73.10;100150.44;5056447;28;20111;-78
2022/05/30 08:43:35;;;;;;;10.88;8.45;;;;;;;20.68;74.13;100158.06;5059433;28;20093;-77
2022/05/30 08:46:08;;;;;;;12.50;8.25;;;;;;;20.72;73.01;100158.78;5059462;28;20091;-78
2022/05/30 08:48:52;;;;;;;21.77;9.13;;;;;;;20.61;72.82;100162.81;5045348;28;20049;-80
2022/05/30 08:51:40;;;;;;;14.35;8.02;;;;;;;20.62;72.74;100161.88;5062529;28;20494;-77
2022/05/30 08:54:17;;;;;;;12.55;7.07;;;;;;;20.23;71.37;100079.25;5061366;28;20048;-79
2022/05/30 08:56:49;;;;;;;10.88;6.93;;;;;;;20.86;71.26;100164.31;5058607;28;20048;-83
2022/05/30 08:59:50;;;;;;;17.85;10.25;;;;;;;20.73;69.83;100094.72;5059466;28;20037;-78
2022/05/30 09:02:32;;;;;;;8.43;6.85;;;;;;;21.34;70.51;100154.09;5015563;28;20040;-79
2022/05/30 09:05:07;;;;;;;10.88;8.00;;;;;;;21.35;70.86;100163.81;5062394;28;20049;-79
2022/05/30 09:07:46;;;;;;;15.40;6.85;;;;;;;21.58;69.33;100150.22;5037458;28;20049;-79
2022/05/30 09:10:20;;;;;;;9.65;7.03;;;;;;;21.75;68.77;100140.50;5041938;28;20048;-77
2022/05/30 09:13:18;;;;;;;12.73;7.70;;;;;;;22.13;69.31;100134.06;5041898;28;20080;-84
2022/05/30 09:16:04;;;;;;;12.05;8.75;;;;;;;21.96;69.95;100135.88;5033763;28;20049;-81
2022/05/30 09:18:52;;;;;;;12.15;8.05;;;;;;;22.76;67.28;100156.59;5017987;28;20048;-80
2022/05/30 09:21:21;;;;;;;10.13;7.82;;;;;;;22.25;67.28;100150.44;5040540;28;20052;-82
2022/05/30 09:23:47;;;;;;;10.77;7.35;;;;;;;21.65;66.62;100100.03;5044966;28;20036;-81
2022/05/30 09:26:16;;;;;;;17.20;9.73;;;;;;;21.55;68.46;100123.69;5046069;28;20039;-82
2022/05/30 09:29:46;;;;;;;16.45;9.52;;;;;;;20.81;71.13;100009.91;5038430;28;20064;-83
2022/05/30 09:32:32;;;;;;;13.65;7.88;;;;;;;21.92;69.59;100152.06;5044969;28;20049;-82
2022/05/30 09:35:20;;;;;;;19.08;8.68;;;;;;;21.46;68.21;100078.75;5045678;28;20045;-80
2022/05/30 09:37:45;;;;;;;9.43;8.35;;;;;;;21.51;68.53;100092.72;5041910;28;20045;-80
2022/05/30 09:40:15;;;;;;;12.95;7.22;;;;;;;21.62;67.36;100103.72;5020968;28;20064;-80
2022/05/30 09:42:49;;;;;;;17.30;8.43;;;;;;;21.95;66.30;100147.50;5036131;28;20505;-79
2022/05/30 09:45:31;;;;;;;11.05;7.13;;;;;;;22.14;70.58;100142.94;5041873;28;20040;-84
2022/05/30 09:48:01;;;;;;;10.27;7.53;;;;;;;22.29;66.64;100103.88;5040816;28;20500;-81
2022/05/30 09:50:29;;;;;;;12.80;8.63;;;;;;;23.55;65.13;100190.56;5038726;28;20501;-78
2022/05/30 09:52:55;;;;;;;8.23;7.10;;;;;;;23.89;64.28;100175.25;5041352;28;20111;-78
2022/05/30 09:55:47;;;;;;;8.00;6.93;;;;;;;23.88;62.76;100166.34;5019509;28;20083;-79
2022/05/30 09:58:14;;;;;;;11.93;7.80;;;;;;;22.77;65.45;100097.63;5026187;28;20103;-79
2022/05/30 10:00:55;;;;;;;10.02;8.25;;;;;;;22.92;63.52;100164.63;5041759;28;20144;-80
2022/05/30 10:03:35;;;;;;;32.55;17.17;;;;;;;22.63;64.60;100096.69;5041480;28;20045;-78
2022/05/30 10:06:19;;;;;;;32.92;18.27;;;;;;;23.28;63.98;100188.53;5000541;28;20253;-78
2022/05/30 10:08:46;;;;;;;21.55;11.32;;;;;;;23.23;66.32;100121.00;5043688;28;21016;-79
2022/05/30 10:11:33;;;;;;;43.60;24.05;;;;;;;23.92;63.14;100161.66;5041199;28;20047;-78
2022/05/30 10:13:59;;;;;;;25.23;13.35;;;;;;;23.45;63.60;100157.25;5060871;28;20404;-79
2022/05/30 10:16:33;;;;;;;28.90;14.27;;;;;;;23.34;65.22;100160.53;5045202;28;20064;-79
2022/05/30 10:19:06;;;;;;;10.48;7.75;;;;;;;23.14;62.98;100143.78;5033614;28;20044;-72
2022/05/30 10:28:16;;;;;;;6.80;6.03;;;;;;;24.65;59.81;100153.63;5052841;28;20055;-72
2022/05/30 10:31:01;;;;;;;12.57;6.18;;;;;;;23.42;60.16;100087.78;5056846;28;20499;-72
2022/05/30 10:33:42;;;;;;;9.25;6.18;;;;;;;23.50;63.27;100153.34;5038661;28;20052;-72
2022/05/30 10:36:13;;;;;;;8.90;6.82;;;;;;;23.77;60.48;100144.69;5055616;28;20040;-72
2022/05/30 10:38:53;;;;;;;7.18;6.47;;;;;;;24.67;60.35;100157.09;5055195;28;20036;-73
2022/05/30 10:41:52;;;;;;;8.02;5.78;;;;;;;23.55;59.92;100162.00;5054071;28;20543;-72
2022/05/30 10:44:18;;;;;;;8.40;6.25;;;;;;;23.44;62.16;100153.72;5005771;28;20044;-73
2022/05/30 10:47:15;;;;;;;8.35;5.07;;;;;;;23.44;58.57;100150.16;5040724;28;20148;-72
2022/05/30 10:49:49;;;;;;;20.35;6.72;;;;;;;24.06;59.71;100159.00;5057220;28;20056;-72
2022/05/30 10:52:32;;;;;;;9.88;6.28;;;;;;;23.03;62.03;100090.00;5058353;28;20049;-72
2022/05/30 10:55:10;;;;;;;8.90;6.55;;;;;;;23.02;61.64;100082.94;5037659;28;20041;-71
2022/05/30 10:57:55;;;;;;;18.15;6.72;;;;;;;22.99;66.56;100090.25;5057564;28;20055;-72
2022/05/30 11:00:30;;;;;;;10.13;5.97;;;;;;;23.35;61.43;100151.56;5060004;28;20052;-71
2022/05/30 11:03:14;;;;;;;14.90;6.38;;;;;;;23.35;60.77;100006.97;5059025;28;20036;-73
2022/05/30 11:06:05;;;;;;;21.27;9.00;;;;;;;24.61;58.75;100154.81;5058512;28;20085;-72
2022/05/30 11:08:34;;;;;;;9.55;7.15;;;;;;;24.81;55.73;100126.69;5062000;28;20103;-72
2022/05/30 11:11:14;;;;;;;13.73;8.77;;;;;;;25.17;55.40;100120.78;5061422;28;20141;-72
2022/05/30 11:13:59;;;;;;;8.70;5.70;;;;;;;24.36;59.82;100156.28;5044849;28;20408;-72
2022/05/30 11:16:52;;;;;;;10.95;7.57;;;;;;;24.87;58.71;100158.53;5039659;28;20044;-72
2022/05/30 11:19:33;;;;;;;;;;;;;;;24.01;60.30;100153.06;5064328;28;20044;-73
2022/05/30 11:22:27;;;;;;;12.70;6.97;;;;;;;23.67;58.16;100160.41;5051085;28;19935;-73
2022/05/30 11:24:54;;;;;;;11.05;7.82;;;;;;;23.68;60.85;100142.50;5063015;28;20076;-73
2022/05/30 11:27:43;;;;;;;11.20;8.15;;;;;;;24.00;59.44;100148.69;5053233;28;20072;-74
2022/05/30 11:30:25;;;;;;;10.52;8.10;;;;;;;24.07;57.59;100151.81;5055617;28;20060;-72
2022/05/30 11:33:02;;;;;;;15.10;9.33;;;;;;;25.15;59.18;100129.91;5063837;28;20143;-73
2022/05/30 11:36:05;;;;;;;13.25;7.05;;;;;;;25.16;55.86;100153.97;5059712;28;20048;-73
2022/05/30 11:38:35;;;;;;;8.55;7.70;;;;;;;24.30;56.77;100151.28;5054202;28;20122;-73
2022/05/30 11:41:22;;;;;;;7.05;5.70;;;;;;;23.87;58.89;100153.03;5055851;28;20051;-72
2022/05/30 11:44:27;;;;;;;8.38;6.05;;;;;;;23.74;59.14;100112.69;5062293;28;20117;-74
2022/05/30 11:47:14;;;;;;;15.40;8.68;;;;;;;24.15;60.97;100153.09;5061058;28;20053;-73
2022/05/30 11:49:49;;;;;;;11.02;7.13;;;;;;;25.08;57.63;100142.88;5064667;28;20545;-73
2022/05/30 11:52:17;;;;;;;18.88;7.93;;;;;;;25.11;54.43;100155.22;5050684;28;20048;-74
2022/05/30 11:55:11;;;;;;;15.50;12.48;;;;;;;24.64;56.55;100141.19;5058943;28;20591;-72
2022/05/30 11:57:56;;;;;;;19.08;10.30;;;;;;;25.26;57.40;100146.19;5069948;28;20075;-72
2022/05/30 12:00:37;;;;;;;11.68;6.47;;;;;;;24.92;56.25;100145.66;5064214;28;20040;-73
2022/05/30 12:03:24;;;;;;;14.82;7.20;;;;;;;24.21;57.78;100080.34;5057546;28;20894;-72